Time;durP1;ratioP1;P1;durP2;ratioP2;P2;SDS_P1;SDS_P2;PMS_P1;PMS_P2;Temp;Humidity;BMP_temperature;BMP_pressure;BME280_temperature;BME280_humidity;BME280_pressure;Samples;Min_cycle;Max_cycle;Signal;HPM_P1;HPM_P2
2021/07/19 05:31:27;;;;;;;75.78;70.90;;;;;;;20.44;66.00;100223.63;1750012;78;25775;-65
2021/07/19 05:33:54;;;;;;;74.82;69.72;;;;;;;20.48;65.85;100227.99;1715106;83;25764;-65
2021/07/19 05:36:20;;;;;;;73.90;69.00;;;;;;;20.56;65.91;100236.30;1701807;83;25709;-72
2021/07/19 05:38:48;;;;;;;76.28;70.83;;;;;;;20.66;66.07;100227.39;1696956;83;25388;-73
2021/07/19 05:41:15;;;;;;;75.10;70.28;;;;;;;20.77;65.77;100231.59;1749994;80;25783;-72
2021/07/19 05:43:42;;;;;;;73.62;68.40;;;;;;;20.88;65.59;100231.89;1752626;81;25797;-72
2021/07/19 05:46:11;;;;;;;75.20;69.53;;;;;;;21.00;65.39;100224.52;1749437;81;27375;-73
2021/07/19 05:48:38;;;;;;;73.92;69.00;;;;;;;21.12;65.06;100237.96;1745085;82;25754;-72
2021/07/19 05:51:04;;;;;;;72.95;68.40;;;;;;;21.26;64.92;100236.67;1740875;81;25803;-73
2021/07/19 05:53:31;;;;;;;74.20;69.60;;;;;;;21.39;64.43;100242.66;1745138;81;25730;-73
2021/07/19 05:55:57;;;;;;;74.47;69.22;;;;;;;21.51;63.95;100245.70;1745146;82;25782;-73
2021/07/19 05:58:24;;;;;;;72.97;68.57;;;;;;;21.63;63.80;100245.97;1713548;83;27575;-72
2021/07/19 06:00:51;;;;;;;74.25;69.27;;;;;;;21.80;63.68;100243.09;1705608;83;25782;-65
2021/07/19 06:03:17;;;;;;;73.05;68.37;;;;;;;21.94;63.54;100243.14;1708278;83;25719;-65
2021/07/19 06:05:46;;;;;;;73.10;68.40;;;;;;;22.11;63.12;100244.98;1708341;83;25810;-65
2021/07/19 06:08:14;;;;;;;74.12;69.60;;;;;;;22.22;62.22;100240.30;1705119;83;25770;-65
2021/07/19 06:10:41;;;;;;;74.05;68.97;;;;;;;22.35;62.45;100237.98;1718309;83;28361;-65
2021/07/19 06:13:07;;;;;;;72.55;67.85;;;;;;;22.53;62.20;100243.53;1719208;83;25717;-65
2021/07/19 06:15:35;;;;;;;73.65;68.47;;;;;;;22.69;61.59;100243.93;1709579;83;25773;-65
2021/07/19 06:18:01;;;;;;;70.47;65.67;;;;;;;22.79;60.62;100246.50;1709482;83;25709;-65
2021/07/19 06:20:28;;;;;;;72.55;67.67;;;;;;;22.88;60.46;100242.77;1708770;83;25836;-65
2021/07/19 06:23:02;;;;;;;68.72;63.90;;;;;;;23.02;60.27;100242.55;1708638;83;27412;-65
2021/07/19 06:25:33;;;;;;;11.28;5.03;;;;;;;23.18;59.89;100246.33;1739927;82;25806;-65
2021/07/19 06:28:02;;;;;;;10.50;4.70;;;;;;;23.25;59.03;100240.80;1744590;82;26426;-65
2021/07/19 06:30:29;;;;;;;75.57;70.70;;;;;;;23.26;58.74;100243.16;1739985;82;32560;-73
2021/07/19 06:32:56;;;;;;;74.10;69.37;;;;;;;23.36;59.17;100242.95;1709701;83;26211;-73
2021/07/19 06:35:25;;;;;;;73.97;69.37;;;;;;;23.48;59.01;100241.14;1708434;83;27335;-65
2021/07/19 06:37:52;;;;;;;72.47;67.97;;;;;;;23.67;59.16;100244.03;1708960;83;27203;-65
2021/07/19 06:40:19;;;;;;;73.78;69.05;;;;;;;23.79;57.76;100241.43;1713779;83;25667;-65
2021/07/19 06:42:46;;;;;;;70.20;66.10;;;;;;;23.89;56.88;100240.42;1705777;83;25721;-65
2021/07/19 06:45:14;;;;;;;74.95;70.12;;;;;;;24.00;57.21;100237.03;1745017;82;25745;-65
2021/07/19 06:47:43;;;;;;;70.50;66.10;;;;;;;24.18;57.46;100236.34;1745235;81;27343;-65
2021/07/19 06:50:12;;;;;;;74.30;69.80;;;;;;;24.41;57.21;100243.30;1743065;81;25748;-65
2021/07/19 06:52:41;;;;;;;74.40;69.50;;;;;;;24.57;56.42;100244.23;1717726;82;25802;-73
2021/07/19 06:55:10;;;;;;;72.32;67.80;;;;;;;24.70;56.19;100250.82;1743743;81;30639;-73
2021/07/19 06:57:38;;;;;;;73.57;68.78;;;;;;;24.76;55.23;100244.28;1745338;82;25715;-73
2021/07/19 07:00:08;;;;;;;70.72;66.20;;;;;;;24.83;54.69;100251.13;1710099;83;27462;-73
2021/07/19 07:02:35;;;;;;;75.08;70.40;;;;;;;24.93;54.32;100249.48;1687069;84;26055;-73
2021/07/19 07:05:03;;;;;;;69.32;64.77;;;;;;;25.00;53.45;100248.63;1709986;83;25650;-73
2021/07/19 07:07:30;;;;;;;71.82;67.40;;;;;;;25.04;53.10;100246.00;1687105;83;25909;-72
2021/07/19 07:09:56;;;;;;;74.00;69.22;;;;;;;25.16;53.11;100248.86;1709167;83;25703;-65
2021/07/19 07:12:23;;;;;;;70.75;66.35;;;;;;;25.28;52.78;100247.59;1709504;83;27968;-65
2021/07/19 07:14:50;;;;;;;71.87;67.40;;;;;;;25.43;52.62;100245.47;1714003;83;25716;-65
2021/07/19 07:17:17;;;;;;;73.10;68.47;;;;;;;25.63;52.57;100248.41;1714477;83;25812;-65
2021/07/19 07:19:43;;;;;;;72.05;67.27;;;;;;;25.85;52.27;100250.33;1708415;83;25796;-65
2021/07/19 07:22:10;;;;;;;40.88;37.78;;;;;;;26.08;51.64;100244.91;1708887;83;25825;-65
2021/07/19 07:24:40;;;;;;;10.85;4.70;;;;;;;26.34;51.46;100250.09;1693188;83;27500;-73
2021/07/19 07:27:09;;;;;;;9.88;4.45;;;;;;;26.57;51.28;100254.30;1686734;83;25696;-73
2021/07/19 07:29:36;;;;;;;9.48;4.33;;;;;;;26.82;50.20;100255.32;1692736;83;25672;-74
2021/07/19 07:32:06;;;;;;;12.35;4.33;;;;;;;26.92;49.83;100250.80;1696358;83;26600;-74
2021/07/19 07:34:33;;;;;;;10.58;4.70;;;;;;;27.14;50.03;100250.41;1708860;83;25784;-65
2021/07/19 07:36:59;;;;;;;7.00;4.47;;;;;;;27.32;49.51;100250.13;1692494;83;27384;-74
2021/07/19 07:39:26;;;;;;;11.43;4.78;;;;;;;27.37;48.72;100246.25;1676330;85;25804;-74
2021/07/19 07:41:52;;;;;;;11.57;4.42;;;;;;;27.30;48.52;100254.72;1702750;83;25739;-74
2021/07/19 07:44:20;;;;;;;8.28;4.08;;;;;;;27.27;48.30;100251.98;1710333;83;25774;-74
2021/07/19 07:46:46;;;;;;;6.92;4.42;;;;;;;27.42;47.71;100252.53;1716524;83;25761;-74
2021/07/19 07:49:14;;;;;;;8.85;4.25;;;;;;;27.61;47.96;100240.64;1699430;83;27429;-74
2021/07/19 07:51:41;;;;;;;8.48;4.25;;;;;;;27.78;47.58;100237.94;1714388;83;25678;-74
2021/07/19 07:54:08;;;;;;;9.53;4.20;;;;;;;27.82;47.25;100246.38;1702133;83;25769;-74
2021/07/19 07:56:34;;;;;;;8.48;4.80;;;;;;;27.75;46.84;100242.34;1689526;83;25814;-74
2021/07/19 07:59:01;;;;;;;8.43;4.83;;;;;;;27.62;46.48;100240.02;1702063;83;25792;-74
2021/07/19 08:01:29;;;;;;;7.37;4.45;;;;;;;27.63;46.84;100245.77;1715421;83;27316;-74
2021/07/19 08:03:56;;;;;;;11.25;4.40;;;;;;;27.79;46.63;100242.27;1679837;83;25825;-74
2021/07/19 08:06:23;;;;;;;8.95;4.55;;;;;;;27.94;46.04;100236.61;1701820;83;26305;-74
2021/07/19 08:08:49;;;;;;;9.58;4.15;;;;;;;28.10;46.07;100240.83;1703834;83;25730;-74
2021/07/19 08:11:16;;;;;;;10.18;4.30;;;;;;;28.22;45.45;100237.98;1704981;83;26369;-74
2021/07/19 08:13:46;;;;;;;7.42;4.20;;;;;;;28.38;44.97;100241.39;1657299;85;27330;-74
2021/07/19 08:16:13;;;;;;;9.15;4.05;;;;;;;28.64;45.43;100241.02;1709364;83;26425;-74
2021/07/19 08:18:39;;;;;;;12.05;4.33;;;;;;;28.95;44.87;100237.09;1714153;83;25847;-75
2021/07/19 08:21:06;;;;;;;9.00;4.67;;;;;;;29.19;44.38;100242.62;1681471;83;25767;-74
2021/07/19 08:23:32;;;;;;;9.13;3.98;;;;;;;29.45;43.88;100239.17;1716356;83;25701;-74
2021/07/19 08:25:59;;;;;;;7.95;4.15;;;;;;;29.61;43.39;100237.73;1685214;83;27346;-74
2021/07/19 08:28:25;;;;;;;7.62;4.50;;;;;;;29.79;42.94;100232.42;1703430;83;25811;-65
2021/07/19 08:30:52;;;;;;;10.70;4.03;;;;;;;29.99;42.90;100237.81;1704401;83;25332;-65
2021/07/19 08:33:19;;;;;;;8.98;4.47;;;;;;;30.16;42.06;100234.31;1722774;82;26482;-65
2021/07/19 08:35:47;;;;;;;9.78;4.12;;;;;;;30.31;41.75;100239.46;1726837;82;25707;-65
2021/07/19 08:38:13;;;;;;;7.28;4.37;;;;;;;30.51;41.17;100238.64;1727307;82;27375;-65
2021/07/19 08:40:44;;;;;;;14.83;4.53;;;;;;;30.70;40.31;100232.63;1726805;82;25759;-65
2021/07/19 08:43:11;;;;;;;8.43;3.90;;;;;;;30.71;40.15;100238.36;1722232;82;25753;-65
2021/07/19 08:45:39;;;;;;;6.97;3.92;;;;;;;30.69;39.50;100233.85;1725550;82;25703;-65
2021/07/19 08:48:07;;;;;;;11.80;3.80;;;;;;;30.66;39.19;100235.37;1727829;82;25751;-65
2021/07/19 08:50:34;;;;;;;6.22;4.05;;;;;;;30.64;39.01;100231.62;1660954;84;27343;-65
2021/07/19 08:53:01;;;;;;;8.90;4.95;;;;;;;30.81;39.25;100237.84;1695280;83;25820;-65
2021/07/19 08:55:28;;;;;;;10.40;4.60;;;;;;;31.03;39.52;100234.36;1691294;83;25792;-65
2021/07/19 08:58:02;;;;;;;8.63;4.08;;;;;;;31.20;38.89;100235.75;1725546;82;25736;-75
2021/07/19 09:00:29;;;;;;;7.97;4.45;;;;;;;31.26;38.12;100232.55;1728103;82;25939;-74
2021/07/19 09:02:56;;;;;;;7.78;3.55;;;;;;;31.37;38.34;100236.34;1726226;82;27348;-75
2021/07/19 09:05:23;;;;;;;6.55;3.62;;;;;;;31.60;38.04;100228.76;1726985;82;25816;-74
2021/07/19 09:07:50;;;;;;;8.53;4.03;;;;;;;31.69;37.27;100236.42;1727070;82;26580;-74
2021/07/19 09:10:22;;;;;;;7.30;3.85;;;;;;;31.81;37.04;100229.36;1728050;82;26255;-75
2021/07/19 09:12:49;;;;;;;4.92;3.25;;;;;;;31.99;37.38;100232.89;1727601;82;25713;-65
2021/07/19 09:15:19;;;;;;;10.45;4.33;;;;;;;32.26;37.44;100224.45;1726689;82;27404;-66
2021/07/19 09:17:45;;;;;;;9.00;3.95;;;;;;;32.56;37.05;100227.04;1721727;82;26104;-63
2021/07/19 09:20:14;;;;;;;10.45;4.28;;;;;;;32.56;36.50;100220.05;1694048;82;25823;-64
2021/07/19 09:22:42;;;;;;;;;;;;;;;32.63;36.33;100221.80;1729522;82;26393;-64
2021/07/19 09:25:14;;;;;;;9.48;4.15;;;;;;;32.68;35.84;100223.22;1726939;82;25765;-64
2021/07/19 09:27:55;;;;;;;11.18;4.35;;;;;;;32.66;35.05;100225.67;1695854;82;27356;-64
2021/07/19 09:30:27;;;;;;;9.08;3.95;;;;;;;32.61;35.05;100222.89;1724362;82;26407;-73
2021/07/19 09:33:06;;;;;;;8.35;4.45;;;;;;;32.75;35.07;100220.88;1718711;82;25636;-73
2021/07/19 09:35:45;;;;;;;8.60;4.60;;;;;;;32.79;34.71;100219.95;1697022;83;25944;-75
2021/07/19 09:38:15;;;;;;;7.80;4.28;;;;;;;32.85;34.99;100219.50;1693819;83;25805;-75
2021/07/19 09:40:46;;;;;;;7.58;3.72;;;;;;;33.04;34.59;100227.29;1700244;83;27395;-73
2021/07/19 09:43:23;;;;;;;10.70;5.08;;;;;;;33.27;34.68;100223.89;1747589;81;25684;-73
2021/07/19 09:46:09;;;;;;;11.28;6.28;;;;;;;33.12;33.73;100225.11;1749819;81;25883;-74
2021/07/19 09:48:38;;;;;;;9.28;4.85;;;;;;;32.83;33.74;100214.36;1712457;81;25817;-73
2021/07/19 09:51:05;;;;;;;8.23;4.67;;;;;;;32.64;34.34;100220.56;1747349;81;25724;-73
2021/07/19 09:53:37;;;;;;;11.38;4.60;;;;;;;32.72;33.39;100215.43;1746418;81;27493;-73
2021/07/19 09:56:17;;;;;;;12.45;5.30;;;;;;;32.62;34.04;100211.83;1747551;81;25767;-73
2021/07/19 09:58:47;;;;;;;12.13;4.47;;;;;;;32.70;34.19;100216.52;1745900;81;25955;-73
2021/07/19 10:01:28;;;;;;;9.58;4.58;;;;;;;32.60;34.11;100212.89;1747314;81;25689;-73
2021/07/19 10:04:20;;;;;;;10.25;9.33;;;;;;;32.74;34.44;100213.73;1749895;81;25741;-73
2021/07/19 10:06:56;;;;;;;11.43;5.00;;;;;;;33.12;34.08;100217.34;1745708;81;27308;-73
2021/07/19 10:09:23;;;;;;;8.00;5.00;;;;;;;33.06;33.71;100213.59;1753991;81;25820;-73
2021/07/19 10:11:53;;;;;;;9.78;5.00;;;;;;;32.89;33.69;100212.48;1753652;81;25338;-73
2021/07/19 10:14:29;;;;;;;10.15;5.58;;;;;;;33.00;33.67;100205.64;1702398;83;25705;-73
2021/07/19 10:16:58;;;;;;;16.17;8.15;;;;;;;33.09;33.42;100209.86;1682800;85;25748;-64
2021/07/19 10:19:27;;;;;;;14.93;5.62;;;;;;;32.93;33.52;100211.73;1682554;83;27531;-64
2021/07/19 10:21:55;;;;;;;9.68;5.33;;;;;;;32.96;33.62;100211.41;1705817;83;26426;-65
2021/07/19 10:24:23;;;;;;;8.23;5.60;;;;;;;33.06;33.58;100212.19;1705347;83;25726;-65
2021/07/19 10:26:51;;;;;;;9.25;5.87;;;;;;;33.57;33.88;100230.39;1709031;83;25720;-64
2021/07/19 10:29:19;;;;;;;8.20;5.13;;;;;;;33.89;34.05;100209.94;1710576;83;25730;-65
2021/07/19 10:31:46;;;;;;;11.18;5.65;;;;;;;34.05;32.96;100206.73;1704392;83;28024;-65
2021/07/19 10:34:17;;;;;;;10.53;5.80;;;;;;;34.08;32.60;100205.02;1710114;83;25771;-65
2021/07/19 10:36:56;;;;;;;14.07;6.25;;;;;;;34.12;32.54;100205.62;1714244;83;25715;-65
2021/07/19 10:39:31;;;;;;;12.00;5.70;;;;;;;34.13;32.01;100202.34;1711981;83;25727;-65
2021/07/19 10:42:05;;;;;;;13.13;6.83;;;;;;;34.31;31.46;100201.51;1710806;83;25780;-65
2021/07/19 10:44:36;;;;;;;9.88;5.58;;;;;;;34.12;30.90;100202.17;1713447;83;27104;-65
2021/07/19 10:47:17;;;;;;;14.80;5.65;;;;;;;33.60;31.15;100204.99;1713584;83;25770;-65
2021/07/19 10:50:04;;;;;;;12.53;5.10;;;;;;;33.25;32.01;100204.58;1709405;83;25730;-65
2021/07/19 10:52:36;;;;;;;10.10;5.25;;;;;;;33.31;32.72;100202.08;1711894;83;25706;-65
2021/07/19 10:55:06;;;;;;;61.68;58.08;;;;;;;33.26;32.44;100199.14;1713693;83;26074;-65
2021/07/19 10:57:39;;;;;;;63.65;59.77;;;;;;;33.13;32.91;100192.26;1709533;83;27297;-65
2021/07/19 11:00:14;;;;;;;64.42;60.58;;;;;;;33.19;32.59;100191.06;1713907;83;25764;-65
2021/07/19 11:02:41;;;;;;;63.35;59.67;;;;;;;33.06;32.83;100183.55;1714457;83;26322;-65
2021/07/19 11:05:10;;;;;;;61.60;57.90;;;;;;;33.14;32.65;100196.63;1713805;83;25740;-74
2021/07/19 11:07:43;;;;;;;63.02;59.13;;;;;;;32.98;32.28;100199.10;1684591;83;25751;-74
2021/07/19 11:10:21;;;;;;;64.22;60.63;;;;;;;32.80;32.23;100193.52;1714038;83;27444;-74
2021/07/19 11:12:54;;;;;;;61.40;57.55;;;;;;;32.88;32.75;100196.95;1685005;83;25786;-74
2021/07/19 11:15:35;;;;;;;63.90;60.25;;;;;;;33.24;32.83;100195.41;1715312;83;25852;-74
2021/07/19 11:18:17;;;;;;;63.13;58.92;;;;;;;33.57;31.67;100181.33;1710784;83;25855;-65
2021/07/19 11:20:47;;;;;;;63.92;60.03;;;;;;;33.84;31.65;100195.28;1684928;83;25857;-65
2021/07/19 11:23:28;;;;;;;64.15;60.05;;;;;;;33.53;30.41;100180.70;1709795;83;27381;-74
2021/07/19 11:25:58;;;;;;;54.20;50.15;;;;;;;33.09;31.17;100195.22;1707517;83;25790;-74
2021/07/19 11:28:29;;;;;;;12.37;6.12;;;;;;;32.71;31.23;100189.46;1706467;83;25697;-65
2021/07/19 11:31:06;;;;;;;13.45;7.10;;;;;;;32.29;31.81;100193.39;1685264;84;26423;-73
2021/07/19 11:33:40;;;;;;;19.67;11.30;;;;;;;32.05;32.49;100183.34;1717254;83;25722;-74
2021/07/19 11:36:27;;;;;;;15.32;7.28;;;;;;;32.13;32.04;100179.02;1718426;83;27345;-74
2021/07/19 11:38:56;;;;;;;10.35;7.00;;;;;;;32.07;32.38;100183.05;1720334;83;25876;-73
2021/07/19 11:41:32;;;;;;;8.18;6.08;;;;;;;32.07;32.26;100183.05;1720256;83;25743;-74
2021/07/19 11:44:03;;;;;;;10.10;7.08;;;;;;;32.34;33.00;100177.39;1723054;83;26368;-74
2021/07/19 11:46:39;;;;;;;10.05;6.97;;;;;;;32.66;32.02;100173.88;1723715;83;25735;-74
2021/07/19 11:49:14;;;;;;;14.73;6.90;;;;;;;32.90;32.20;100173.45;1719375;83;27385;-74
2021/07/19 11:51:45;;;;;;;11.45;6.28;;;;;;;32.99;31.22;100171.89;1724049;83;25798;-74
2021/07/19 11:54:16;;;;;;;12.73;7.10;;;;;;;33.03;31.22;100170.50;1719623;83;26709;-74
2021/07/19 11:56:54;;;;;;;10.00;7.10;;;;;;;33.18;31.46;100176.88;1718519;83;25722;-73
2021/07/19 11:59:24;;;;;;;11.03;6.67;;;;;;;32.99;30.87;100168.45;1722478;83;26035;-74
2021/07/19 12:02:00;;;;;;;13.03;7.17;;;;;;;33.24;31.58;100163.81;1723747;83;27333;-73
2021/07/19 12:04:44;;;;;;;16.30;7.53;;;;;;;33.64;31.09;100157.92;1711970;83;25890;-74
2021/07/19 12:07:12;;;;;;;11.38;6.72;;;;;;;33.48;30.37;100163.91;1754325;81;25783;-74
2021/07/19 12:09:40;;;;;;;9.53;6.37;;;;;;;33.04;30.45;100169.23;1757691;81;26369;-74
2021/07/19 12:12:08;;;;;;;13.20;6.85;;;;;;;32.70;30.92;100161.92;1757455;81;25657;-73
2021/07/19 12:14:35;;;;;;;;;;;;;;;32.53;31.28;100160.02;1760403;81;27975;-74
2021/07/19 12:17:01;;;;;;;14.00;7.22;;;;;;;32.70;31.23;100160.53;1757121;81;25704;-74
2021/07/19 12:19:28;;;;;;;11.55;7.65;;;;;;;32.56;30.98;100163.28;1756975;81;25743;-74
2021/07/19 12:21:59;;;;;;;13.75;7.50;;;;;;;32.24;30.89;100161.82;1756786;81;26160;-74
2021/07/19 12:24:29;;;;;;;10.55;7.15;;;;;;;31.94;30.96;100162.17;1753679;81;25771;-73
2021/07/19 12:27:02;;;;;;;18.00;10.20;;;;;;;31.62;31.21;100164.19;1756717;81;27394;-73
2021/07/19 12:29:36;;;;;;;17.20;9.30;;;;;;;31.39;31.87;100171.00;1703326;83;26304;-73
2021/07/19 12:32:10;;;;;;;13.68;8.98;;;;;;;31.15;32.39;100174.11;1751537;81;25700;-72
2021/07/19 12:34:42;;;;;;;11.38;7.60;;;;;;;30.90;32.47;100170.95;1710823;81;26527;-72
2021/07/19 12:37:13;;;;;;;12.18;8.00;;;;;;;30.71;32.55;100168.58;1735236;81;26276;-73
2021/07/19 12:39:50;;;;;;;12.63;7.90;;;;;;;30.59;32.88;100172.20;1731731;81;27167;-72
2021/07/19 12:42:24;;;;;;;11.38;7.05;;;;;;;30.49;32.84;100166.36;1736375;81;25665;-72
2021/07/19 12:44:57;;;;;;;13.72;7.05;;;;;;;30.41;33.06;100167.82;1732097;81;25665;-72
2021/07/19 12:47:27;;;;;;;13.05;8.18;;;;;;;30.28;33.35;100160.85;1728670;81;25793;-74
2021/07/19 12:50:04;;;;;;;12.13;7.08;;;;;;;30.12;33.40;100157.55;1733909;81;25781;-64
2021/07/19 12:52:33;;;;;;;12.43;8.15;;;;;;;29.98;33.80;100159.59;1729568;81;27340;-64
2021/07/19 12:55:04;;;;;;;13.58;7.25;;;;;;;29.88;34.17;100164.89;1704315;81;25762;-66
2021/07/19 12:57:38;;;;;;;17.75;8.05;;;;;;;29.95;33.77;100165.25;1739253;81;25786;-66
2021/07/19 13:00:12;;;;;;;15.63;7.65;;;;;;;29.86;34.03;100160.35;1728439;81;26323;-64
2021/07/19 13:02:41;;;;;;;11.43;7.87;;;;;;;29.82;34.26;100165.89;1740769;81;25754;-65
2021/07/19 13:05:13;;;;;;;12.98;7.62;;;;;;;29.93;34.34;100169.11;1736546;81;27570;-65
2021/07/19 13:07:42;;;;;;;14.03;7.85;;;;;;;29.93;34.36;100164.33;1736902;81;25671;-65
2021/07/19 13:10:13;;;;;;;13.85;7.00;;;;;;;30.10;34.98;100161.41;1735871;81;26426;-66
2021/07/19 13:13:02;;;;;;;14.87;7.92;;;;;;;30.48;34.99;100161.41;1737596;81;25814;-65
2021/07/19 13:15:34;;;;;;;12.00;7.60;;;;;;;30.88;34.37;100160.05;1734618;81;25926;-73
2021/07/19 13:18:08;;;;;;;11.57;7.05;;;;;;;31.05;33.52;100159.28;1737633;81;27289;-74
2021/07/19 13:20:38;;;;;;;12.15;7.83;;;;;;;31.16;33.90;100161.68;1734644;81;25680;-74
2021/07/19 13:23:20;;;;;;;11.35;7.10;;;;;;;31.47;33.60;100156.92;1737872;81;25688;-73
2021/07/19 13:25:49;;;;;;;12.50;7.95;;;;;;;31.68;33.03;100155.21;1732840;81;25754;-74
2021/07/19 13:28:22;;;;;;;12.70;7.85;;;;;;;31.60;32.83;100149.90;1740165;81;25872;-73
2021/07/19 13:30:48;;;;;;;16.75;8.18;;;;;;;31.67;32.58;100143.86;1729043;81;27415;-74
2021/07/19 13:33:25;;;;;;;13.75;7.33;;;;;;;31.68;32.21;100141.23;1736549;81;27187;-73
2021/07/19 13:35:52;;;;;;;12.53;8.20;;;;;;;31.76;32.18;100136.30;1761079;81;26385;-74
2021/07/19 13:38:19;;;;;;;14.58;8.05;;;;;;;31.87;32.21;100136.49;1763243;81;25859;-74
2021/07/19 13:40:53;;;;;;;14.15;8.13;;;;;;;31.99;32.51;100131.41;1763942;81;25805;-74
2021/07/19 13:43:21;;;;;;;12.55;7.62;;;;;;;32.17;32.50;100139.88;1763705;81;27355;-73
2021/07/19 13:45:57;;;;;;;12.63;7.35;;;;;;;32.31;32.36;100131.52;1763058;81;34916;-73
2021/07/19 13:48:26;;;;;;;13.25;8.33;;;;;;;32.21;31.54;100136.94;1763748;81;26340;-74
2021/07/19 13:50:55;;;;;;;11.73;7.42;;;;;;;32.00;31.78;100132.34;1764145;81;26355;-74
2021/07/19 13:53:22;;;;;;;11.70;8.25;;;;;;;31.82;32.08;100133.08;1763804;81;25719;-73
2021/07/19 13:55:55;;;;;;;14.87;7.67;;;;;;;31.72;32.41;100131.48;1763762;81;29484;-73
2021/07/19 13:58:23;;;;;;;14.63;7.83;;;;;;;31.76;32.50;100128.53;1761508;81;25667;-74
2021/07/19 14:00:51;;;;;;;13.15;7.85;;;;;;;31.69;32.43;100127.39;1763092;81;35458;-74
2021/07/19 14:03:18;;;;;;;14.27;8.33;;;;;;;31.70;32.56;100124.77;1763885;81;25776;-74
2021/07/19 14:05:45;;;;;;;12.90;8.00;;;;;;;31.70;32.26;100121.98;1759537;81;25884;-74
2021/07/19 14:08:12;;;;;;;10.35;7.55;;;;;;;31.55;31.89;100119.75;1763707;81;27348;-74
2021/07/19 14:10:40;;;;;;;15.40;8.30;;;;;;;31.46;31.97;100112.05;1763642;81;26443;-74
2021/07/19 14:13:11;;;;;;;18.95;11.75;;;;;;;31.39;32.39;100110.16;1759509;81;25822;-75
2021/07/19 14:15:41;;;;;;;11.53;8.08;;;;;;;31.52;32.81;100112.88;1763705;81;26291;-65
2021/07/19 14:18:08;;;;;;;11.75;7.87;;;;;;;31.62;32.68;100111.08;1759106;81;25824;-65
2021/07/19 14:20:35;;;;;;;12.43;7.58;;;;;;;31.76;32.96;100108.97;1731746;81;27384;-65
2021/07/19 14:23:02;;;;;;;14.45;8.40;;;;;;;31.84;32.53;100117.20;1763019;81;25728;-65
2021/07/19 14:25:29;;;;;;;11.60;8.18;;;;;;;31.84;32.35;100108.82;1763695;81;25660;-65
2021/07/19 14:27:58;;;;;;;11.22;8.33;;;;;;;31.86;32.29;100115.35;1763615;81;25746;-65
2021/07/19 14:30:24;;;;;;;13.93;7.95;;;;;;;31.84;32.29;100117.20;1764289;81;25875;-66
2021/07/19 14:32:52;;;;;;;15.40;9.08;;;;;;;31.82;32.12;100115.50;1763334;81;27317;-65
2021/07/19 14:35:20;;;;;;;14.30;8.30;;;;;;;31.67;31.67;100109.72;1724595;81;25895;-65
2021/07/19 14:37:48;;;;;;;12.47;8.48;;;;;;;31.52;31.91;100103.89;1750725;81;32575;-65
2021/07/19 14:40:18;;;;;;;14.40;8.83;;;;;;;31.40;32.20;100115.92;1752099;81;26344;-65
2021/07/19 14:42:49;;;;;;;14.63;8.73;;;;;;;31.27;32.18;100113.97;1752853;81;25731;-65
2021/07/19 14:45:17;;;;;;;13.43;9.08;;;;;;;31.17;32.58;100112.98;1751636;81;27325;-65
2021/07/19 14:47:46;;;;;;;16.75;10.43;;;;;;;31.13;32.69;100110.95;1752004;81;25717;-66
2021/07/19 14:50:14;;;;;;;12.33;9.65;;;;;;;31.08;32.85;100117.27;1751658;81;29875;-66
2021/07/19 14:52:42;;;;;;;16.15;9.78;;;;;;;31.00;32.73;100115.95;1753988;81;25644;-65
2021/07/19 14:55:11;;;;;;;12.78;10.03;;;;;;;30.90;32.47;100109.52;1749766;81;26005;-65
2021/07/19 14:57:38;;;;;;;14.60;9.40;;;;;;;30.66;32.37;100114.73;1718255;81;27341;-65
2021/07/19 15:00:09;;;;;;;13.50;9.58;;;;;;;30.48;32.71;100117.38;1754597;81;25746;-65
2021/07/19 15:02:36;;;;;;;14.85;9.85;;;;;;;30.36;32.81;100106.42;1752610;81;26320;-65
2021/07/19 15:05:06;;;;;;;10.58;9.38;;;;;;;30.29;33.01;100114.38;1719588;81;25762;-65
2021/07/19 15:07:35;;;;;;;12.90;9.30;;;;;;;30.16;33.03;100110.20;1752903;81;25798;-65
2021/07/19 15:10:04;;;;;;;15.80;10.13;;;;;;;30.00;33.21;100114.52;1752435;81;33668;-66
2021/07/19 15:12:30;;;;;;;19.05;9.50;;;;;;;29.91;33.61;100110.23;1748989;81;25800;-65
2021/07/19 15:14:57;;;;;;;13.35;10.10;;;;;;;29.80;33.71;100110.59;1752254;81;25758;-65
2021/07/19 15:17:25;;;;;;;16.32;9.63;;;;;;;29.62;33.68;100113.26;1752259;81;25684;-65
2021/07/19 15:19:52;;;;;;;15.13;9.10;;;;;;;29.50;33.61;100111.87;1754076;81;25760;-65
2021/07/19 15:22:19;;;;;;;15.28;9.98;;;;;;;29.32;33.67;100106.81;1752201;80;27308;-65
2021/07/19 15:24:46;;;;;;;13.45;9.88;;;;;;;29.10;33.64;100108.81;1753845;81;25892;-65
2021/07/19 15:27:13;;;;;;;12.65;9.28;;;;;;;28.92;33.86;100110.69;1753181;81;26483;-65
2021/07/19 15:29:40;;;;;;;17.12;9.98;;;;;;;28.73;33.79;100109.62;1753896;81;25709;-74
2021/07/19 15:32:07;;;;;;;15.38;9.78;;;;;;;28.59;34.42;100105.22;1752173;81;25747;-74
2021/07/19 15:34:37;;;;;;;14.03;10.00;;;;;;;28.53;34.87;100109.70;1749264;81;27501;-74
2021/07/19 15:37:04;;;;;;;15.83;9.90;;;;;;;28.46;34.73;100107.89;1744058;81;25856;-74
2021/07/19 15:39:31;;;;;;;14.05;10.03;;;;;;;28.34;34.66;100106.44;1745280;81;26450;-74
2021/07/19 15:41:57;;;;;;;14.98;9.48;;;;;;;28.25;34.86;100105.05;1742518;81;25812;-74
2021/07/19 15:44:24;;;;;;;22.10;15.95;;;;;;;28.23;34.92;100105.30;1747663;81;25642;-75
2021/07/19 15:46:51;;;;;;;14.28;9.38;;;;;;;28.11;35.07;100110.36;1745240;81;27339;-74
2021/07/19 15:49:17;;;;;;;17.50;9.33;;;;;;;27.97;35.19;100108.52;1746024;81;25776;-74
2021/07/19 15:51:44;;;;;;;14.00;9.58;;;;;;;27.81;35.25;100103.70;1741682;81;25725;-65
2021/07/19 15:54:11;;;;;;;16.30;9.20;;;;;;;27.69;35.49;100105.16;1743174;81;27834;-65
2021/07/19 15:56:37;;;;;;;13.98;9.48;;;;;;;27.64;35.87;100105.06;1746756;81;25661;-65
2021/07/19 15:59:04;;;;;;;12.65;8.63;;;;;;;27.62;35.93;100103.91;1745985;81;27383;-65
2021/07/19 16:01:33;;;;;;;15.95;8.85;;;;;;;27.65;36.11;100098.89;1745825;81;25800;-65
2021/07/19 16:03:59;;;;;;;17.83;9.80;;;;;;;27.66;36.32;100100.46;1743065;81;25843;-65
2021/07/19 16:06:26;;;;;;;14.13;8.45;;;;;;;27.68;36.46;100101.58;1749548;81;25789;-65
2021/07/19 16:08:54;;;;;;;14.98;9.33;;;;;;;27.65;36.49;100096.11;1745199;81;26357;-65
2021/07/19 16:11:26;;;;;;;15.18;8.68;;;;;;;27.59;36.46;100098.63;1745218;81;27291;-65
2021/07/19 16:13:51;;;;;;;11.60;8.88;;;;;;;27.51;36.59;100099.37;1738927;81;25816;-65
2021/07/19 16:16:19;;;;;;;13.18;8.48;;;;;;;27.42;36.71;100094.25;1743001;81;25799;-74
2021/07/19 16:18:46;;;;;;;17.77;9.03;;;;;;;27.35;36.82;100091.02;1748082;81;25727;-74
2021/07/19 16:21:14;;;;;;;12.15;8.55;;;;;;;27.28;36.96;100096.11;1744762;81;25843;-74
2021/07/19 16:23:41;;;;;;;15.60;8.08;;;;;;;27.18;37.08;100096.47;1742792;81;27383;-74
2021/07/19 16:26:17;;;;;;;12.80;8.43;;;;;;;27.07;37.12;100100.67;1744607;81;25836;-74
2021/07/19 16:28:45;;;;;;;13.65;7.62;;;;;;;26.94;37.09;100099.16;1745505;81;25780;-74
2021/07/19 16:31:12;;;;;;;14.35;8.50;;;;;;;26.83;37.49;100095.98;1741930;81;25802;-74
2021/07/19 16:33:39;;;;;;;12.90;8.08;;;;;;;26.74;37.64;100101.90;1745524;81;25757;-74
2021/07/19 16:36:05;;;;;;;15.58;8.35;;;;;;;26.61;37.77;100099.72;1762113;81;27280;-74
2021/07/19 16:38:32;;;;;;;13.70;7.62;;;;;;;26.45;37.97;100103.15;1763342;81;25724;-75
2021/07/19 16:40:59;;;;;;;15.00;8.55;;;;;;;26.31;38.14;100110.95;1763874;81;25672;-75
2021/07/19 16:43:26;;;;;;;13.15;8.33;;;;;;;26.21;38.46;100107.14;1763866;81;25707;-75
2021/07/19 16:48:20;;;;;;;20.68;9.75;;;;;;;26.13;38.82;100113.38;1764295;81;27402;-75
2021/07/19 16:50:47;;;;;;;21.95;13.10;;;;;;;26.09;38.94;100114.05;1763949;81;25952;-75
2021/07/19 16:53:15;;;;;;;12.13;8.48;;;;;;;25.99;39.06;100113.62;1721914;82;25805;-75
2021/07/19 16:55:42;;;;;;;14.47;8.28;;;;;;;25.91;39.06;100115.66;1731486;82;25771;-74
2021/07/19 16:58:09;;;;;;;14.78;7.85;;;;;;;25.80;39.04;100124.14;1704760;83;26630;-74
2021/07/19 17:00:36;;;;;;;14.85;8.30;;;;;;;25.69;39.27;100121.53;1724829;82;27938;-75